sensor_id;sensor_type;location;lat;lon;timestamp;pressure;altitude;pressure_sealevel;temperature;humidity
71559;BME280;59382;43.852;25.952;2023-07-13T00:02:15;101063.97;;;30.54;42.53
71559;BME280;59382;43.852;25.952;2023-07-13T00:04:40;101046.28;;;30.50;42.25
71559;BME280;59382;43.852;25.952;2023-07-13T00:07:07;101058.38;;;30.54;42.49
71559;BME280;59382;43.852;25.952;2023-07-13T00:09:33;101068.84;;;30.57;42.24
71559;BME280;59382;43.852;25.952;2023-07-13T00:11:58;101069.69;;;30.58;42.41
71559;BME280;59382;43.852;25.952;2023-07-13T00:14:25;101067.91;;;30.53;42.92
71559;BME280;59382;43.852;25.952;2023-07-13T00:16:51;101053.88;;;30.41;43.99
71559;BME280;59382;43.852;25.952;2023-07-13T00:19:17;101050.97;;;30.29;43.87
71559;BME280;59382;43.852;25.952;2023-07-13T00:21:42;101050.03;;;30.25;44.28
71559;BME280;59382;43.852;25.952;2023-07-13T00:24:10;101039.22;;;30.15;44.51
71559;BME280;59382;43.852;25.952;2023-07-13T00:26:40;101041.66;;;30.16;44.75
71559;BME280;59382;43.852;25.952;2023-07-13T00:29:06;101044.31;;;30.13;44.88
71559;BME280;59382;43.852;25.952;2023-07-13T00:31:34;101045.81;;;30.02;45.07
71559;BME280;59382;43.852;25.952;2023-07-13T00:34:00;101036.06;;;29.87;45.67
71559;BME280;59382;43.852;25.952;2023-07-13T00:36:26;101033.63;;;29.77;45.61
71559;BME280;59382;43.852;25.952;2023-07-13T00:38:51;101019.22;;;29.75;45.83
71559;BME280;59382;43.852;25.952;2023-07-13T00:41:17;101035.22;;;29.87;45.41
71559;BME280;59382;43.852;25.952;2023-07-13T00:43:43;101019.41;;;29.79;45.52
71559;BME280;59382;43.852;25.952;2023-07-13T00:46:16;101024.97;;;29.79;45.34
71559;BME280;59382;43.852;25.952;2023-07-13T00:48:43;101026.59;;;29.80;45.26
71559;BME280;59382;43.852;25.952;2023-07-13T00:51:10;101011.22;;;29.74;45.21
71559;BME280;59382;43.852;25.952;2023-07-13T00:53:36;101021.97;;;29.84;45.24
71559;BME280;59382;43.852;25.952;2023-07-13T00:56:02;101011.50;;;29.81;45.11
71559;BME280;59382;43.852;25.952;2023-07-13T00:58:29;101016.13;;;29.77;45.17
71559;BME280;59382;43.852;25.952;2023-07-13T01:00:55;101026.75;;;29.83;45.23
71559;BME280;59382;43.852;25.952;2023-07-13T01:03:21;101025.91;;;29.83;45.05
71559;BME280;59382;43.852;25.952;2023-07-13T01:05:48;101028.69;;;29.83;45.38
71559;BME280;59382;43.852;25.952;2023-07-13T01:08:15;101025.59;;;29.84;45.13
71559;BME280;59382;43.852;25.952;2023-07-13T01:10:41;101028.69;;;29.83;45.12
71559;BME280;59382;43.852;25.952;2023-07-13T01:13:08;101013.50;;;29.80;45.10
71559;BME280;59382;43.852;25.952;2023-07-13T01:15:45;101018.75;;;29.73;45.49
71559;BME280;59382;43.852;25.952;2023-07-13T01:18:14;101027.09;;;29.73;45.43
71559;BME280;59382;43.852;25.952;2023-07-13T01:20:41;101028.25;;;29.64;45.61
71559;BME280;59382;43.852;25.952;2023-07-13T01:23:10;101031.06;;;29.64;45.75
71559;BME280;59382;43.852;25.952;2023-07-13T01:25:37;101022.84;;;29.67;45.82
71559;BME280;59382;43.852;25.952;2023-07-13T01:28:08;101027.91;;;29.74;45.82
71559;BME280;59382;43.852;25.952;2023-07-13T01:30:37;101022.03;;;29.67;45.53
71559;BME280;59382;43.852;25.952;2023-07-13T01:33:06;101040.66;;;29.75;45.74
71559;BME280;59382;43.852;25.952;2023-07-13T01:35:33;101045.91;;;29.68;45.86
71559;BME280;59382;43.852;25.952;2023-07-13T01:37:58;101054.91;;;29.73;46.19
71559;BME280;59382;43.852;25.952;2023-07-13T01:40:26;101049.84;;;29.67;46.78
71559;BME280;59382;43.852;25.952;2023-07-13T01:42:52;101038.91;;;29.62;47.12
71559;BME280;59382;43.852;25.952;2023-07-13T01:45:17;101035.91;;;29.58;47.13
71559;BME280;59382;43.852;25.952;2023-07-13T01:47:43;101024.81;;;29.50;47.24
71559;BME280;59382;43.852;25.952;2023-07-13T01:50:09;101038.06;;;29.53;47.35
71559;BME280;59382;43.852;25.952;2023-07-13T01:52:34;101031.53;;;29.49;47.61
71559;BME280;59382;43.852;25.952;2023-07-13T01:55:00;101027.59;;;29.50;47.59
71559;BME280;59382;43.852;25.952;2023-07-13T01:57:25;101025.97;;;29.49;47.61
71559;BME280;59382;43.852;25.952;2023-07-13T01:59:51;101040.34;;;29.51;47.96
71559;BME280;59382;43.852;25.952;2023-07-13T02:02:16;101027.28;;;29.43;47.88
71559;BME280;59382;43.852;25.952;2023-07-13T02:04:42;101035.44;;;29.48;48.19
71559;BME280;59382;43.852;25.952;2023-07-13T02:07:08;101025.81;;;29.37;48.60
71559;BME280;59382;43.852;25.952;2023-07-13T02:09:34;101043.00;;;29.39;48.40
71559;BME280;59382;43.852;25.952;2023-07-13T02:11:59;101048.56;;;29.39;48.47
71559;BME280;59382;43.852;25.952;2023-07-13T02:14:25;101041.03;;;29.39;48.67
71559;BME280;59382;43.852;25.952;2023-07-13T02:16:50;101044.63;;;29.40;48.49
71559;BME280;59382;43.852;25.952;2023-07-13T02:19:16;101030.88;;;29.35;48.76
71559;BME280;59382;43.852;25.952;2023-07-13T02:21:42;101039.06;;;29.40;48.75
71559;BME280;59382;43.852;25.952;2023-07-13T02:24:08;101050.34;;;29.35;49.00
71559;BME280;59382;43.852;25.952;2023-07-13T02:26:34;101046.75;;;29.34;49.63
71559;BME280;59382;43.852;25.952;2023-07-13T02:28:59;101035.16;;;29.24;49.61
71559;BME280;59382;43.852;25.952;2023-07-13T02:31:25;101049.53;;;29.26;49.77
71559;BME280;59382;43.852;25.952;2023-07-13T02:33:50;101043.31;;;29.29;49.48
71559;BME280;59382;43.852;25.952;2023-07-13T02:36:16;101053.78;;;29.32;49.77
71559;BME280;59382;43.852;25.952;2023-07-13T02:38:42;101035.97;;;29.24;50.12
71559;BME280;59382;43.852;25.952;2023-07-13T02:41:08;101031.72;;;29.27;50.25
71559;BME280;59382;43.852;25.952;2023-07-13T02:43:35;101027.28;;;29.26;50.38
71559;BME280;59382;43.852;25.952;2023-07-13T02:46:01;101036.13;;;29.28;50.00
71559;BME280;59382;43.852;25.952;2023-07-13T02:48:33;101018.47;;;29.24;50.06
71559;BME280;59382;43.852;25.952;2023-07-13T02:50:58;101030.41;;;29.33;49.76
71559;BME280;59382;43.852;25.952;2023-07-13T02:53:24;101031.53;;;29.32;49.41
71559;BME280;59382;43.852;25.952;2023-07-13T02:55:49;101041.22;;;29.34;48.99
71559;BME280;59382;43.852;25.952;2023-07-13T02:58:16;101038.41;;;29.26;49.00
71559;BME280;59382;43.852;25.952;2023-07-13T03:00:45;101021.25;;;29.15;48.92
71559;BME280;59382;43.852;25.952;2023-07-13T03:03:12;101016.19;;;29.17;48.72
71559;BME280;59382;43.852;25.952;2023-07-13T03:05:42;101025.00;;;29.11;48.33
71559;BME280;59382;43.852;25.952;2023-07-13T03:08:09;101040.69;;;29.15;48.70
71559;BME280;59382;43.852;25.952;2023-07-13T03:10:35;101026.66;;;29.12;48.35
71559;BME280;59382;43.852;25.952;2023-07-13T03:13:01;101036.28;;;29.23;48.26
71559;BME280;59382;43.852;25.952;2023-07-13T03:15:27;101036.47;;;29.26;47.95
71559;BME280;59382;43.852;25.952;2023-07-13T03:17:52;101025.66;;;29.25;48.15
71559;BME280;59382;43.852;25.952;2023-07-13T03:20:18;101020.09;;;29.25;47.86
71559;BME280;59382;43.852;25.952;2023-07-13T03:22:44;101021.06;;;29.29;47.98
71559;BME280;59382;43.852;25.952;2023-07-13T03:25:09;101029.91;;;29.31;47.72
71559;BME280;59382;43.852;25.952;2023-07-13T03:27:36;101024.50;;;29.26;47.73
71559;BME280;59382;43.852;25.952;2023-07-13T03:30:03;101024.03;;;29.24;47.61
71559;BME280;59382;43.852;25.952;2023-07-13T03:32:28;101031.22;;;29.33;47.61
71559;BME280;59382;43.852;25.952;2023-07-13T03:34:54;101025.00;;;29.28;47.51
71559;BME280;59382;43.852;25.952;2023-07-13T03:37:19;101035.31;;;29.36;47.61
71559;BME280;59382;43.852;25.952;2023-07-13T03:39:46;101036.44;;;29.35;47.47
71559;BME280;59382;43.852;25.952;2023-07-13T03:42:12;101034.66;;;29.39;47.44
71559;BME280;59382;43.852;25.952;2023-07-13T03:44:39;101032.69;;;29.39;47.45
71559;BME280;59382;43.852;25.952;2023-07-13T03:47:04;101028.28;;;29.30;47.45
71559;BME280;59382;43.852;25.952;2023-07-13T03:49:31;101027.28;;;29.26;47.69
71559;BME280;59382;43.852;25.952;2023-07-13T03:51:57;101016.50;;;29.16;47.72
71559;BME280;59382;43.852;25.952;2023-07-13T03:54:23;101025.84;;;29.11;47.68
71559;BME280;59382;43.852;25.952;2023-07-13T03:56:48;101029.91;;;29.14;47.94
71559;BME280;59382;43.852;25.952;2023-07-13T03:59:14;101039.88;;;29.23;47.72
71559;BME280;59382;43.852;25.952;2023-07-13T04:01:39;101026.97;;;29.19;47.91
71559;BME280;59382;43.852;25.952;2023-07-13T04:04:05;101035.97;;;29.24;48.19
71559;BME280;59382;43.852;25.952;2023-07-13T04:06:32;101042.19;;;29.30;48.41
71559;BME280;59382;43.852;25.952;2023-07-13T04:08:59;101046.09;;;29.29;48.00
71559;BME280;59382;43.852;25.952;2023-07-13T04:11:29;101045.75;;;29.30;48.01
71559;BME280;59382;43.852;25.952;2023-07-13T04:13:56;101038.41;;;29.26;47.89
71559;BME280;59382;43.852;25.952;2023-07-13T04:16:22;101043.63;;;29.27;47.96
71559;BME280;59382;43.852;25.952;2023-07-13T04:18:48;101052.97;;;29.31;47.84
71559;BME280;59382;43.852;25.952;2023-07-13T04:21:15;101042.34;;;29.25;48.08
71559;BME280;59382;43.852;25.952;2023-07-13T04:23:40;101053.97;;;29.27;48.19
71559;BME280;59382;43.852;25.952;2023-07-13T04:26:07;101048.06;;;29.20;48.27
71559;BME280;59382;43.852;25.952;2023-07-13T04:28:33;101044.97;;;29.13;48.29
71559;BME280;59382;43.852;25.952;2023-07-13T04:30:58;101063.59;;;29.12;48.25
71559;BME280;59382;43.852;25.952;2023-07-13T04:33:24;101058.22;;;29.07;48.51
71559;BME280;59382;43.852;25.952;2023-07-13T04:35:51;101071.13;;;29.12;48.48
71559;BME280;59382;43.852;25.952;2023-07-13T04:38:27;101069.13;;;29.12;48.48
71559;BME280;59382;43.852;25.952;2023-07-13T04:40:55;101066.34;;;29.12;48.33
71559;BME280;59382;43.852;25.952;2023-07-13T04:43:22;101070.94;;;29.08;48.39
71559;BME280;59382;43.852;25.952;2023-07-13T04:45:48;101072.03;;;28.99;48.63
71559;BME280;59382;43.852;25.952;2023-07-13T04:48:13;101081.22;;;29.08;48.56
71559;BME280;59382;43.852;25.952;2023-07-13T04:50:39;101089.09;;;29.14;48.45
71559;BME280;59382;43.852;25.952;2023-07-13T04:53:05;101080.09;;;29.17;48.32
71559;BME280;59382;43.852;25.952;2023-07-13T04:55:31;101088.13;;;29.19;48.40
71559;BME280;59382;43.852;25.952;2023-07-13T04:57:57;101051.13;;;29.01;48.67
71559;BME280;59382;43.852;25.952;2023-07-13T05:00:29;101079.28;;;29.17;48.59
71559;BME280;59382;43.852;25.952;2023-07-13T05:02:56;101079.28;;;29.17;48.92
71559;BME280;59382;43.852;25.952;2023-07-13T05:05:22;101071.44;;;29.10;48.92
71559;BME280;59382;43.852;25.952;2023-07-13T05:07:48;101079.47;;;29.12;49.19
71559;BME280;59382;43.852;25.952;2023-07-13T05:10:14;101081.09;;;29.13;49.19
71559;BME280;59382;43.852;25.952;2023-07-13T05:12:40;101070.13;;;29.08;49.61
71559;BME280;59382;43.852;25.952;2023-07-13T05:15:06;101068.28;;;29.03;49.39
71559;BME280;59382;43.852;25.952;2023-07-13T05:17:32;101058.31;;;28.94;49.86
71559;BME280;59382;43.852;25.952;2023-07-13T05:19:57;101076.50;;;29.17;49.90
71559;BME280;59382;43.852;25.952;2023-07-13T05:22:23;101072.41;;;29.23;49.85
71559;BME280;59382;43.852;25.952;2023-07-13T05:24:48;101090.91;;;29.36;49.71
